createdAt,value
2022-11-19T00:00:34.209Z,953.23
2022-11-19T00:00:52.764Z,953.23
2022-11-19T00:01:23.775Z,953.23
2022-11-19T00:01:54.822Z,953.23
2022-11-19T00:02:25.884Z,953.23
2022-11-19T00:02:56.797Z,953.23
2022-11-19T00:03:27.782Z,953.23
2022-11-19T00:03:58.747Z,953.23
2022-11-19T00:04:30.768Z,953.33
2022-11-19T00:05:00.894Z,953.33
2022-11-19T00:05:31.790Z,953.23
2022-11-19T00:06:02.888Z,953.23
2022-11-19T00:06:33.773Z,953.23
2022-11-19T00:07:04.837Z,953.13
2022-11-19T00:07:35.804Z,953.13
2022-11-19T00:08:06.844Z,953.03
2022-11-19T00:08:37.804Z,953.03
2022-11-19T00:09:08.821Z,953.23
2022-11-19T00:09:40.857Z,953.23
2022-11-19T00:10:10.992Z,953.03
2022-11-19T00:10:41.756Z,953.03
2022-11-19T00:11:12.850Z,953.23
2022-11-19T00:11:43.758Z,953.23
2022-11-19T00:12:14.770Z,953.23
2022-11-19T00:12:45.782Z,953.23
2022-11-19T00:13:16.894Z,953.23
2022-11-19T00:13:48.148Z,953.23
2022-11-19T00:14:18.748Z,953.03
2022-11-19T00:14:50.798Z,953.03
2022-11-19T00:15:37.004Z,953.13
2022-11-19T00:15:51.804Z,953.13
2022-11-19T00:16:24.228Z,953.13
2022-11-19T00:16:53.807Z,953.13
2022-11-19T00:17:24.767Z,953.13
2022-11-19T00:17:55.796Z,953.13
2022-11-19T00:18:26.732Z,953.23
2022-11-19T00:18:57.752Z,953.23
2022-11-19T00:19:28.789Z,953.03
2022-11-19T00:20:00.982Z,953.03
2022-11-19T00:20:30.766Z,953.13
2022-11-19T00:21:01.940Z,953.03
2022-11-19T00:21:32.771Z,953.03
2022-11-19T00:22:03.834Z,952.93
2022-11-19T00:22:34.763Z,952.93
2022-11-19T00:23:05.786Z,953.23
2022-11-19T00:23:36.943Z,953.23
2022-11-19T00:24:07.833Z,953.13
2022-11-19T00:24:38.756Z,953.13
2022-11-19T00:25:10.806Z,953.44
2022-11-19T00:25:40.762Z,953.44
2022-11-19T00:26:11.731Z,953.13
2022-11-19T00:26:42.822Z,953.13
2022-11-19T00:27:13.771Z,953.23
2022-11-19T00:27:44.877Z,953.23
2022-11-19T00:28:15.810Z,953.23
2022-11-19T00:28:46.860Z,953.23
2022-11-19T00:29:18.292Z,953.03
2022-11-19T00:29:48.799Z,953.03
2022-11-19T00:30:47.576Z,953.23
2022-11-19T00:30:50.814Z,953.23
2022-11-19T00:31:21.867Z,953.23
2022-11-19T00:31:52.839Z,953.23
2022-11-19T00:32:23.782Z,953.03
2022-11-19T00:32:54.796Z,953.03
2022-11-19T00:33:25.880Z,953.33
2022-11-19T00:33:56.765Z,953.33
2022-11-19T00:34:27.800Z,953.13
2022-11-19T00:34:58.758Z,953.13
2022-11-19T00:35:30.828Z,953.23
2022-11-19T00:36:01.013Z,953.23
2022-11-19T00:36:31.869Z,953.23
2022-11-19T00:37:02.823Z,953.13
2022-11-19T00:37:33.785Z,953.13
2022-11-19T00:38:04.762Z,953.03
2022-11-19T00:38:35.777Z,953.03
2022-11-19T00:39:06.782Z,953.23
2022-11-19T00:39:37.796Z,953.23
2022-11-19T00:40:08.803Z,953.13
2022-11-19T00:40:40.743Z,953.13
2022-11-19T00:41:10.778Z,952.93
2022-11-19T00:41:41.759Z,952.93
2022-11-19T00:42:12.797Z,953.13
2022-11-19T00:42:43.804Z,953.13
2022-11-19T00:43:14.759Z,953.03
2022-11-19T00:43:45.781Z,953.03
2022-11-19T00:44:16.822Z,953.13
2022-11-19T00:44:47.797Z,953.13
2022-11-19T00:45:31.049Z,953.03
2022-11-19T00:45:50.741Z,953.03
2022-11-19T00:46:20.800Z,953.23
2022-11-19T00:46:51.755Z,953.23
2022-11-19T00:47:22.826Z,953.23
2022-11-19T00:47:53.837Z,953.23
2022-11-19T00:48:24.749Z,953.13
2022-11-19T00:48:55.764Z,953.13
2022-11-19T00:49:26.800Z,952.93
2022-11-19T00:49:57.740Z,952.93
2022-11-19T00:50:28.748Z,953.33
2022-11-19T00:51:00.983Z,953.33
2022-11-19T00:51:30.738Z,953.03
2022-11-19T00:52:01.931Z,953.13
2022-11-19T00:52:32.852Z,953.13
2022-11-19T00:53:03.791Z,953.13
2022-11-19T00:53:34.755Z,953.13
2022-11-19T00:54:05.859Z,953.44
2022-11-19T00:54:36.744Z,953.44
2022-11-19T00:55:07.810Z,953.23
2022-11-19T00:55:38.728Z,953.23
2022-11-19T00:56:10.768Z,953.33
2022-11-19T00:56:40.796Z,953.33
2022-11-19T00:57:11.791Z,953.23
2022-11-19T00:57:42.760Z,953.23
2022-11-19T00:58:13.801Z,953.33
2022-11-19T00:58:44.755Z,953.33
2022-11-19T00:59:15.763Z,953.23
2022-11-19T00:59:46.843Z,953.23
2022-11-19T01:00:30.077Z,953.23
2022-11-19T01:00:48.822Z,953.23
2022-11-19T01:01:20.850Z,953.13
2022-11-19T01:01:50.740Z,953.13
2022-11-19T01:02:21.755Z,953.44
2022-11-19T01:02:52.801Z,953.44
2022-11-19T01:03:23.775Z,953.23
2022-11-19T01:03:54.744Z,953.23
2022-11-19T01:04:25.766Z,953.13
2022-11-19T01:04:56.751Z,953.13
2022-11-19T01:05:27.785Z,953.23
2022-11-19T01:05:58.736Z,953.23
2022-11-19T01:06:30.748Z,953.23
2022-11-19T01:07:00.921Z,953.23
2022-11-19T01:07:31.883Z,953.33
2022-11-19T01:08:02.846Z,953.23
2022-11-19T01:08:33.741Z,953.23
2022-11-19T01:09:04.804Z,953.23
2022-11-19T01:09:35.902Z,953.23
2022-11-19T01:10:06.899Z,953.23
2022-11-19T01:10:37.730Z,953.23
2022-11-19T01:11:08.751Z,953.44
2022-11-19T01:11:40.734Z,953.44
2022-11-19T01:12:10.846Z,953.23
2022-11-19T01:12:41.766Z,953.23
2022-11-19T01:13:13.118Z,953.33
2022-11-19T01:13:43.771Z,953.33
2022-11-19T01:14:14.775Z,953.44
2022-11-19T01:14:45.799Z,953.44
2022-11-19T01:15:32.575Z,953.33
2022-11-19T01:15:47.785Z,953.33
2022-11-19T01:16:18.966Z,953.44
2022-11-19T01:16:50.756Z,953.44
2022-11-19T01:17:20.749Z,953.54
2022-11-19T01:17:51.803Z,953.54
2022-11-19T01:18:22.756Z,953.44
2022-11-19T01:18:53.743Z,953.44
2022-11-19T01:19:24.746Z,953.23
2022-11-19T01:19:55.811Z,953.23
2022-11-19T01:20:26.843Z,953.23
2022-11-19T01:20:57.742Z,953.23
2022-11-19T01:21:28.747Z,953.23
2022-11-19T01:22:00.940Z,953.23
2022-11-19T01:22:30.730Z,953.33
2022-11-19T01:23:01.894Z,953.44
2022-11-19T01:23:32.796Z,953.44
2022-11-19T01:24:03.765Z,953.44
2022-11-19T01:24:34.744Z,953.44
2022-11-19T01:25:05.801Z,953.44
2022-11-19T01:25:36.820Z,953.44
2022-11-19T01:26:07.733Z,953.33
2022-11-19T01:26:42.890Z,953.33
2022-11-19T01:27:10.789Z,953.33
2022-11-19T01:27:40.737Z,953.33
2022-11-19T01:28:11.754Z,953.44
2022-11-19T01:28:42.761Z,953.44
2022-11-19T01:29:13.762Z,953.33
2022-11-19T01:29:44.744Z,953.33
2022-11-19T01:30:28.109Z,953.44
2022-11-19T01:30:46.790Z,953.44
2022-11-19T01:31:17.768Z,953.54
2022-11-19T01:31:48.722Z,953.54
2022-11-19T01:32:20.751Z,953.33
2022-11-19T01:32:50.728Z,953.33
2022-11-19T01:33:21.751Z,953.54
2022-11-19T01:33:52.749Z,953.54
2022-11-19T01:34:23.737Z,953.33
2022-11-19T01:34:54.748Z,953.33
2022-11-19T01:35:25.802Z,953.33
2022-11-19T01:35:56.948Z,953.33
2022-11-19T01:36:27.749Z,953.54
2022-11-19T01:36:58.747Z,953.54
2022-11-19T01:37:30.742Z,953.44
2022-11-19T01:38:00.893Z,953.44
2022-11-19T01:38:31.767Z,953.33
2022-11-19T01:39:02.795Z,953.23
2022-11-19T01:39:33.734Z,953.23
2022-11-19T01:40:04.978Z,953.44
2022-11-19T01:40:35.876Z,953.44
2022-11-19T01:41:06.831Z,953.54
2022-11-19T01:41:37.735Z,953.54
2022-11-19T01:42:08.818Z,953.44
2022-11-19T01:42:40.829Z,953.44
2022-11-19T01:43:10.838Z,953.64
2022-11-19T01:43:41.766Z,953.64
2022-11-19T01:44:12.759Z,953.54
2022-11-19T01:44:43.825Z,953.54
2022-11-19T01:45:27.215Z,953.64
2022-11-19T01:45:45.822Z,953.64
2022-11-19T01:46:17.832Z,953.71
2022-11-19T01:46:47.808Z,953.71
2022-11-19T01:47:18.788Z,953.33
2022-11-19T01:47:50.814Z,953.33
2022-11-19T01:48:20.801Z,953.44
2022-11-19T01:48:51.795Z,953.44
2022-11-19T01:49:22.939Z,953.64
2022-11-19T01:49:53.778Z,953.64
2022-11-19T01:50:24.759Z,953.44
2022-11-19T01:50:55.797Z,953.44
2022-11-19T01:51:26.750Z,953.23
2022-11-19T01:51:57.714Z,953.23
2022-11-19T01:52:28.748Z,953.33
2022-11-19T01:53:00.953Z,953.33
2022-11-19T01:53:30.773Z,953.33
2022-11-19T01:54:01.889Z,953.33
2022-11-19T01:54:32.752Z,953.33
2022-11-19T01:55:03.735Z,953.54
2022-11-19T01:55:34.735Z,953.54
2022-11-19T01:56:05.760Z,953.44
2022-11-19T01:56:36.756Z,953.44
2022-11-19T01:57:07.766Z,953.33
2022-11-19T01:57:38.735Z,953.33
2022-11-19T01:58:10.740Z,953.44
2022-11-19T01:58:40.743Z,953.44
2022-11-19T01:59:11.775Z,953.33
2022-11-19T01:59:42.948Z,953.33
2022-11-19T02:00:26.707Z,953.44
2022-11-19T02:00:44.758Z,953.44
2022-11-19T02:01:17.602Z,953.44
2022-11-19T02:01:46.825Z,953.44
2022-11-19T02:02:20.597Z,953.44
2022-11-19T02:02:52.264Z,953.44
2022-11-19T02:03:20.884Z,953.33
2022-11-19T02:03:50.834Z,953.33
2022-11-19T02:04:22.163Z,953.44
2022-11-19T02:04:53.157Z,953.44
2022-11-19T02:05:24.115Z,953.44
2022-11-19T02:05:54.835Z,953.44
2022-11-19T02:06:26.098Z,953.33
2022-11-19T02:06:56.889Z,953.33
2022-11-19T02:07:27.932Z,953.23
2022-11-19T02:07:58.744Z,953.23
2022-11-19T02:08:30.749Z,953.33
2022-11-19T02:09:00.993Z,953.33
2022-11-19T02:09:31.871Z,953.44
2022-11-19T02:10:03.123Z,953.33
2022-11-19T02:10:36.195Z,953.33
2022-11-19T02:11:06.569Z,953.23
2022-11-19T02:11:35.884Z,953.23
2022-11-19T02:12:07.238Z,953.23
2022-11-19T02:12:38.525Z,953.23
2022-11-19T02:13:09.903Z,953.33
2022-11-19T02:13:44.554Z,953.33
2022-11-19T02:14:10.795Z,953.23
2022-11-19T02:14:41.883Z,953.23
2022-11-19T02:15:25.145Z,953.13
2022-11-19T02:15:43.750Z,953.13
2022-11-19T02:16:14.846Z,953.33
2022-11-19T02:16:45.793Z,953.33
2022-11-19T02:17:16.744Z,953.33
2022-11-19T02:17:47.824Z,953.33
2022-11-19T02:18:18.724Z,953.33
2022-11-19T02:18:50.803Z,953.33
2022-11-19T02:19:21.030Z,953.33
2022-11-19T02:19:51.747Z,953.33
2022-11-19T02:20:22.884Z,953.44
2022-11-19T02:20:53.731Z,953.44
2022-11-19T02:21:24.760Z,953.13
2022-11-19T02:21:55.826Z,953.13
2022-11-19T02:22:26.757Z,953.33
2022-11-19T02:22:57.730Z,953.33
2022-11-19T02:23:28.733Z,953.33
2022-11-19T02:24:00.950Z,953.33
2022-11-19T02:24:30.826Z,953.54
2022-11-19T02:25:01.965Z,953.33
2022-11-19T02:25:32.770Z,953.33
2022-11-19T02:26:03.769Z,953.33
2022-11-19T02:26:35.239Z,953.33
2022-11-19T02:27:05.795Z,953.44
2022-11-19T02:27:36.738Z,953.44
2022-11-19T02:28:07.767Z,953.23
2022-11-19T02:28:38.784Z,953.23
2022-11-19T02:29:10.743Z,953.33
2022-11-19T02:29:40.795Z,953.33
2022-11-19T02:30:24.854Z,953.33
2022-11-19T02:30:42.744Z,953.33
2022-11-19T02:31:13.758Z,953.44
2022-11-19T02:31:44.717Z,953.44
2022-11-19T02:32:15.795Z,953.54
2022-11-19T02:32:46.719Z,953.54
2022-11-19T02:33:17.819Z,953.23
2022-11-19T02:33:48.711Z,953.23
2022-11-19T02:34:20.734Z,953.81
2022-11-19T02:34:50.729Z,953.81
2022-11-19T02:35:21.741Z,953.33
2022-11-19T02:35:52.776Z,953.33
2022-11-19T02:36:23.747Z,953.54
2022-11-19T02:36:54.727Z,953.54
2022-11-19T02:37:25.726Z,953.54
2022-11-19T02:37:56.776Z,953.54
2022-11-19T02:38:27.710Z,953.44
2022-11-19T02:38:58.722Z,953.44
2022-11-19T02:39:30.717Z,953.54
2022-11-19T02:40:00.978Z,953.54
2022-11-19T02:40:31.760Z,953.54
2022-11-19T02:41:02.826Z,953.64
2022-11-19T02:41:33.736Z,953.64
2022-11-19T02:42:04.769Z,953.54
2022-11-19T02:42:35.811Z,953.54
2022-11-19T02:43:06.806Z,953.64
2022-11-19T02:43:37.723Z,953.64
2022-11-19T02:44:08.729Z,953.54
2022-11-19T02:44:40.728Z,953.54
2022-11-19T02:45:23.089Z,953.64
2022-11-19T02:45:41.721Z,953.64
2022-11-19T02:46:12.717Z,953.64
2022-11-19T02:46:43.754Z,953.64
2022-11-19T02:47:14.766Z,953.54
2022-11-19T02:47:45.788Z,953.54
2022-11-19T02:48:16.715Z,953.44
2022-11-19T02:48:47.768Z,953.44
2022-11-19T02:49:18.945Z,953.64
2022-11-19T02:49:50.716Z,953.64
2022-11-19T02:50:20.803Z,953.54
2022-11-19T02:50:51.992Z,953.54
2022-11-19T02:51:22.724Z,953.64
2022-11-19T02:51:53.856Z,953.64
2022-11-19T02:52:24.716Z,953.64
2022-11-19T02:52:55.751Z,953.64
2022-11-19T02:53:26.744Z,953.54
2022-11-19T02:53:57.721Z,953.54
2022-11-19T02:54:28.772Z,953.54
2022-11-19T02:55:00.902Z,953.54
2022-11-19T02:55:30.705Z,953.71
2022-11-19T02:56:01.859Z,953.64
2022-11-19T02:56:32.873Z,953.64
2022-11-19T02:57:03.806Z,953.64
2022-11-19T02:57:34.748Z,953.64
2022-11-19T02:58:05.797Z,953.71
2022-11-19T02:58:36.706Z,953.71
2022-11-19T02:59:07.753Z,953.81
2022-11-19T02:59:38.777Z,953.81
2022-11-19T03:00:23.449Z,953.91
2022-11-19T03:00:40.807Z,953.91
2022-11-19T03:01:11.865Z,953.81
2022-11-19T03:01:42.881Z,953.81
2022-11-19T03:02:13.869Z,954.01
2022-11-19T03:02:44.801Z,954.01
2022-11-19T03:03:15.789Z,954.01
2022-11-19T03:03:46.742Z,954.01
2022-11-19T03:04:17.800Z,953.91
2022-11-19T03:04:48.759Z,953.91
2022-11-19T03:05:20.807Z,953.71
2022-11-19T03:05:50.772Z,953.71
2022-11-19T03:06:21.784Z,953.91
2022-11-19T03:06:52.799Z,953.91
2022-11-19T03:07:23.862Z,953.91
2022-11-19T03:07:54.830Z,953.91
2022-11-19T03:08:25.779Z,953.71
2022-11-19T03:08:56.724Z,953.71
2022-11-19T03:09:27.898Z,953.81
2022-11-19T03:09:58.962Z,953.81
2022-11-19T03:10:30.813Z,953.81
2022-11-19T03:11:01.015Z,953.81
2022-11-19T03:11:31.735Z,953.91
2022-11-19T03:12:02.910Z,953.81
2022-11-19T03:12:34.130Z,953.81
2022-11-19T03:13:04.820Z,953.91
2022-11-19T03:13:36.521Z,953.91
2022-11-19T03:14:06.831Z,953.81
2022-11-19T03:14:37.803Z,953.81
2022-11-19T03:15:21.361Z,954.11
2022-11-19T03:15:40.783Z,954.11
2022-11-19T03:16:10.778Z,954.11
2022-11-19T03:16:49.790Z,954.11
2022-11-19T03:17:12.777Z,954.01
2022-11-19T03:17:43.751Z,954.01
2022-11-19T03:18:14.720Z,953.91
2022-11-19T03:18:45.725Z,953.91
2022-11-19T03:19:17.019Z,953.71
2022-11-19T03:19:47.761Z,953.71
2022-11-19T03:20:18.753Z,953.91
2022-11-19T03:20:50.757Z,953.91
2022-11-19T03:21:20.740Z,954.21
2022-11-19T03:21:51.764Z,954.21
2022-11-19T03:22:22.699Z,954.01
2022-11-19T03:22:53.759Z,954.01
2022-11-19T03:23:24.744Z,954.01
2022-11-19T03:23:55.769Z,954.01
2022-11-19T03:24:26.688Z,954.11
2022-11-19T03:24:57.722Z,954.11
2022-11-19T03:25:28.709Z,954.01
2022-11-19T03:26:00.891Z,954.01
2022-11-19T03:26:30.708Z,954.11
2022-11-19T03:27:01.888Z,954.21
2022-11-19T03:27:32.753Z,954.21
2022-11-19T03:28:03.753Z,954.01
2022-11-19T03:28:34.725Z,954.01
2022-11-19T03:29:05.746Z,954.21
2022-11-19T03:29:36.759Z,954.21
2022-11-19T03:30:20.059Z,953.91
2022-11-19T03:30:38.708Z,953.91
2022-11-19T03:31:10.717Z,954.01
2022-11-19T03:31:40.711Z,954.01
2022-11-19T03:32:11.712Z,954.11
2022-11-19T03:32:42.708Z,954.11
2022-11-19T03:33:13.777Z,954.21
2022-11-19T03:33:44.696Z,954.21
2022-11-19T03:34:15.708Z,953.91
2022-11-19T03:34:46.704Z,953.91
2022-11-19T03:35:17.687Z,954.11
2022-11-19T03:35:48.745Z,954.11
2022-11-19T03:36:20.736Z,954.32
2022-11-19T03:36:50.722Z,954.32
2022-11-19T03:37:21.755Z,954.32
2022-11-19T03:37:52.761Z,954.32
2022-11-19T03:38:23.726Z,954.32
2022-11-19T03:38:54.708Z,954.32
2022-11-19T03:39:26.008Z,954.21
2022-11-19T03:39:56.763Z,954.21
2022-11-19T03:40:27.698Z,954.21
2022-11-19T03:40:58.738Z,954.21
2022-11-19T03:41:30.684Z,954.21
2022-11-19T03:42:00.896Z,954.21
2022-11-19T03:42:31.719Z,954.21
2022-11-19T03:43:02.817Z,954.42
2022-11-19T03:43:33.697Z,954.42
2022-11-19T03:44:04.738Z,954.32
2022-11-19T03:44:35.727Z,954.32
2022-11-19T03:45:19.113Z,954.42
2022-11-19T03:45:37.702Z,954.42
2022-11-19T03:46:08.729Z,954.32
2022-11-19T03:46:40.698Z,954.32
2022-11-19T03:47:10.689Z,954.42
2022-11-19T03:47:41.693Z,954.42
2022-11-19T03:48:12.698Z,954.42
2022-11-19T03:48:43.708Z,954.42
2022-11-19T03:49:14.680Z,954.32
2022-11-19T03:49:45.783Z,954.32
2022-11-19T03:50:16.696Z,954.32
2022-11-19T03:50:47.849Z,954.32
2022-11-19T03:51:18.732Z,954.21
2022-11-19T03:51:50.796Z,954.21
2022-11-19T03:52:20.782Z,954.42
2022-11-19T03:52:51.788Z,954.42
2022-11-19T03:53:22.728Z,954.21
2022-11-19T03:53:53.895Z,954.21
2022-11-19T03:54:24.792Z,954.32
2022-11-19T03:54:55.726Z,954.32
2022-11-19T03:55:26.751Z,954.42
2022-11-19T03:55:57.763Z,954.42
2022-11-19T03:56:28.803Z,954.52
2022-11-19T03:57:00.947Z,954.52
2022-11-19T03:57:30.726Z,954.52
2022-11-19T03:58:01.877Z,954.42
2022-11-19T03:58:32.751Z,954.42
2022-11-19T03:59:03.824Z,954.21
2022-11-19T03:59:34.759Z,954.21
2022-11-19T04:00:18.157Z,954.52
2022-11-19T04:00:36.815Z,954.52
2022-11-19T04:01:07.819Z,954.52
2022-11-19T04:01:38.865Z,954.52
2022-11-19T04:02:10.915Z,954.42
2022-11-19T04:02:40.750Z,954.42
2022-11-19T04:03:11.743Z,954.42
2022-11-19T04:03:42.967Z,954.42
2022-11-19T04:04:13.775Z,954.62
2022-11-19T04:04:44.764Z,954.62
2022-11-19T04:05:15.739Z,954.62
2022-11-19T04:05:46.779Z,954.62
2022-11-19T04:06:17.696Z,954.52
2022-11-19T04:06:48.687Z,954.52
2022-11-19T04:07:20.826Z,954.42
2022-11-19T04:07:50.807Z,954.42
2022-11-19T04:08:21.697Z,954.42
2022-11-19T04:08:52.739Z,954.42
2022-11-19T04:09:23.871Z,954.32
2022-11-19T04:09:54.723Z,954.32
2022-11-19T04:10:25.919Z,954.42
2022-11-19T04:10:56.713Z,954.42
2022-11-19T04:11:27.766Z,954.32
2022-11-19T04:11:58.686Z,954.32
2022-11-19T04:12:30.727Z,954.32
2022-11-19T04:13:00.796Z,954.32
2022-11-19T04:13:31.724Z,954.21
2022-11-19T04:14:02.710Z,954.42
2022-11-19T04:14:35.301Z,954.42
2022-11-19T04:15:27.004Z,954.42
2022-11-19T04:15:35.810Z,954.42
2022-11-19T04:16:06.762Z,954.52
2022-11-19T04:16:37.776Z,954.52
2022-11-19T04:17:12.389Z,954.52
2022-11-19T04:17:40.698Z,954.52
2022-11-19T04:18:10.792Z,954.42
2022-11-19T04:18:41.716Z,954.42
2022-11-19T04:19:12.760Z,954.42
2022-11-19T04:19:43.744Z,954.42
2022-11-19T04:20:14.735Z,954.62
2022-11-19T04:20:45.763Z,954.62
2022-11-19T04:21:16.789Z,954.52
2022-11-19T04:21:47.797Z,954.52
2022-11-19T04:22:18.699Z,954.52
2022-11-19T04:22:50.831Z,954.52
2022-11-19T04:23:20.785Z,954.32
2022-11-19T04:23:51.770Z,954.32
2022-11-19T04:24:22.722Z,954.52
2022-11-19T04:24:53.755Z,954.52
2022-11-19T04:25:24.755Z,954.42
2022-11-19T04:25:55.738Z,954.42
2022-11-19T04:26:26.760Z,954.62
2022-11-19T04:26:57.764Z,954.62
2022-11-19T04:27:28.763Z,954.42
2022-11-19T04:28:01.239Z,954.42
2022-11-19T04:28:30.728Z,954.52
2022-11-19T04:29:01.974Z,954.42
2022-11-19T04:29:32.736Z,954.42
2022-11-19T04:30:16.134Z,954.52
2022-11-19T04:30:34.727Z,954.52
2022-11-19T04:31:05.807Z,954.42
2022-11-19T04:31:36.755Z,954.42
2022-11-19T04:32:07.774Z,954.72
2022-11-19T04:32:38.710Z,954.72
2022-11-19T04:33:10.721Z,954.72
2022-11-19T04:33:40.678Z,954.72
2022-11-19T04:34:11.728Z,954.62
2022-11-19T04:34:42.702Z,954.62
2022-11-19T04:35:13.698Z,954.72
2022-11-19T04:35:44.694Z,954.72
2022-11-19T04:36:15.708Z,954.93
2022-11-19T04:36:46.729Z,954.93
2022-11-19T04:37:17.706Z,954.52
2022-11-19T04:37:48.669Z,954.52
2022-11-19T04:38:20.748Z,954.62
2022-11-19T04:38:50.719Z,954.62
2022-11-19T04:39:21.990Z,954.62
2022-11-19T04:39:52.676Z,954.62
2022-11-19T04:40:23.743Z,954.72
2022-11-19T04:40:54.713Z,954.72
2022-11-19T04:41:25.691Z,954.93
2022-11-19T04:41:56.736Z,954.93
2022-11-19T04:42:27.690Z,954.72
2022-11-19T04:42:58.741Z,954.72
2022-11-19T04:43:30.700Z,954.82
2022-11-19T04:44:00.873Z,954.82
2022-11-19T04:44:31.684Z,954.72
2022-11-19T04:45:15.151Z,954.62
2022-11-19T04:45:33.717Z,954.62
2022-11-19T04:46:04.780Z,954.93
2022-11-19T04:46:35.809Z,954.93
2022-11-19T04:47:06.809Z,954.62
2022-11-19T04:47:38.745Z,954.62
2022-11-19T04:48:08.752Z,954.82
2022-11-19T04:48:40.733Z,954.82
2022-11-19T04:49:10.784Z,954.82
2022-11-19T04:49:41.778Z,954.82
2022-11-19T04:50:12.785Z,954.62
2022-11-19T04:50:43.741Z,954.62
2022-11-19T04:51:14.805Z,954.82
2022-11-19T04:51:45.707Z,954.82
2022-11-19T04:52:16.757Z,954.93
2022-11-19T04:52:47.739Z,954.93
2022-11-19T04:53:18.821Z,954.82
2022-11-19T04:53:50.763Z,954.82
2022-11-19T04:54:20.764Z,954.93
2022-11-19T04:54:51.803Z,954.93
2022-11-19T04:55:22.667Z,954.72
2022-11-19T04:55:53.657Z,954.72
2022-11-19T04:56:24.811Z,954.52
2022-11-19T04:56:55.776Z,954.52
2022-11-19T04:57:26.775Z,954.82
2022-11-19T04:57:57.768Z,954.82
2022-11-19T04:58:28.816Z,954.72
2022-11-19T04:59:00.901Z,954.72
2022-11-19T04:59:30.761Z,954.93
2022-11-19T05:00:14.322Z,954.82
2022-11-19T05:00:32.731Z,954.82
2022-11-19T05:01:03.842Z,954.82
2022-11-19T05:01:34.795Z,954.82
2022-11-19T05:02:05.819Z,954.93
2022-11-19T05:02:36.790Z,954.93
2022-11-19T05:03:07.793Z,954.82
2022-11-19T05:03:38.765Z,954.82
2022-11-19T05:04:10.725Z,954.93
2022-11-19T05:04:40.731Z,954.93
2022-11-19T05:05:11.816Z,954.93
2022-11-19T05:05:42.776Z,954.93
2022-11-19T05:06:13.748Z,954.82
2022-11-19T05:06:44.935Z,954.82
2022-11-19T05:07:15.772Z,954.93
2022-11-19T05:07:46.745Z,954.93
2022-11-19T05:08:17.734Z,954.82
2022-11-19T05:08:48.706Z,954.82
2022-11-19T05:09:21.224Z,955.03
2022-11-19T05:09:50.824Z,955.03
2022-11-19T05:10:21.868Z,954.82
2022-11-19T05:10:52.744Z,954.82
2022-11-19T05:11:23.745Z,954.93
2022-11-19T05:11:54.794Z,954.93
2022-11-19T05:12:25.739Z,954.93
2022-11-19T05:12:56.727Z,954.93
2022-11-19T05:13:28.124Z,954.82
2022-11-19T05:13:58.743Z,954.82
2022-11-19T05:14:30.825Z,954.82
2022-11-19T05:15:13.261Z,954.82
2022-11-19T05:15:31.743Z,954.93
2022-11-19T05:16:10.291Z,954.82
2022-11-19T05:16:34.434Z,954.82
2022-11-19T05:17:05.467Z,954.82
2022-11-19T05:17:36.006Z,954.82
2022-11-19T05:18:06.753Z,954.93
2022-11-19T05:18:37.760Z,954.93
2022-11-19T05:19:08.775Z,954.72
2022-11-19T05:19:40.772Z,954.72
2022-11-19T05:20:10.764Z,954.72
2022-11-19T05:20:41.725Z,954.72
2022-11-19T05:21:12.728Z,954.82
2022-11-19T05:21:43.734Z,954.82
2022-11-19T05:22:14.773Z,955.03
2022-11-19T05:22:45.738Z,955.03
2022-11-19T05:23:16.741Z,954.82
2022-11-19T05:23:47.696Z,954.82
2022-11-19T05:24:18.772Z,954.93
2022-11-19T05:24:50.744Z,954.93
2022-11-19T05:25:20.720Z,954.72
2022-11-19T05:25:51.784Z,954.72
2022-11-19T05:26:22.686Z,954.82
2022-11-19T05:26:53.756Z,954.82
2022-11-19T05:27:24.776Z,954.82
2022-11-19T05:27:55.747Z,954.82
2022-11-19T05:28:37.954Z,954.93
2022-11-19T05:28:57.756Z,954.93
2022-11-19T05:29:28.731Z,955.13
2022-11-19T05:30:13.297Z,955.13
2022-11-19T05:30:30.699Z,954.82
2022-11-19T05:31:01.881Z,954.82
2022-11-19T05:31:32.720Z,954.82
2022-11-19T05:32:03.735Z,955.03
2022-11-19T05:32:34.780Z,955.03
2022-11-19T05:33:05.776Z,955.03
2022-11-19T05:33:36.732Z,955.03
2022-11-19T05:34:07.764Z,955.13
2022-11-19T05:34:38.724Z,955.13
2022-11-19T05:35:10.781Z,955.03
2022-11-19T05:35:40.712Z,955.03
2022-11-19T05:36:11.776Z,955.13
2022-11-19T05:36:42.718Z,955.13
2022-11-19T05:37:13.761Z,955.03
2022-11-19T05:37:44.729Z,955.03
2022-11-19T05:38:15.786Z,955.03
2022-11-19T05:38:46.823Z,955.03
2022-11-19T05:39:22.137Z,954.82
2022-11-19T05:39:48.730Z,954.82
2022-11-19T05:40:20.884Z,954.82
2022-11-19T05:40:50.768Z,954.82
2022-11-19T05:41:21.933Z,954.72
2022-11-19T05:41:52.779Z,954.72
2022-11-19T05:42:23.716Z,954.82
2022-11-19T05:42:54.701Z,954.82
2022-11-19T05:43:25.786Z,954.82
2022-11-19T05:43:56.766Z,954.82
2022-11-19T05:44:27.802Z,954.82
2022-11-19T05:44:58.708Z,954.82
2022-11-19T05:45:43.081Z,954.82
2022-11-19T05:46:00.880Z,954.82
2022-11-19T05:46:31.784Z,954.72
2022-11-19T05:47:02.790Z,954.82
2022-11-19T05:47:33.688Z,954.82
2022-11-19T05:48:04.736Z,954.93
2022-11-19T05:48:35.812Z,954.93
2022-11-19T05:49:06.764Z,955.03
2022-11-19T05:49:37.698Z,955.03
2022-11-19T05:50:08.796Z,954.82
2022-11-19T05:50:40.723Z,954.82
2022-11-19T05:51:10.724Z,954.93
2022-11-19T05:51:41.670Z,954.93
2022-11-19T05:52:12.807Z,954.82
2022-11-19T05:52:43.779Z,954.82
2022-11-19T05:53:14.719Z,954.93
2022-11-19T05:53:45.784Z,954.93
2022-11-19T05:54:16.801Z,955.03
2022-11-19T05:54:47.707Z,955.03
2022-11-19T05:55:18.678Z,955.03
2022-11-19T05:55:50.770Z,955.03
2022-11-19T05:56:20.671Z,954.93
2022-11-19T05:56:51.660Z,954.93
2022-11-19T05:57:22.712Z,955.23
2022-11-19T05:57:53.661Z,955.23
2022-11-19T05:58:24.689Z,955.03
2022-11-19T05:58:55.662Z,955.03
2022-11-19T05:59:26.675Z,955.13
2022-11-19T05:59:57.691Z,955.13
2022-11-19T06:00:41.040Z,955.13
2022-11-19T06:01:00.922Z,955.13
2022-11-19T06:01:30.675Z,954.82
2022-11-19T06:02:01.888Z,954.93
2022-11-19T06:02:32.701Z,954.93
2022-11-19T06:03:03.722Z,955.03
2022-11-19T06:03:34.679Z,955.03
2022-11-19T06:04:05.761Z,955.13
2022-11-19T06:04:36.668Z,955.13
2022-11-19T06:05:07.729Z,955.03
2022-11-19T06:05:40.271Z,955.03
2022-11-19T06:06:10.688Z,955.03
2022-11-19T06:06:40.651Z,955.03
2022-11-19T06:07:11.724Z,955.13
2022-11-19T06:07:42.644Z,955.13
2022-11-19T06:08:13.856Z,955.13
2022-11-19T06:08:44.671Z,955.13
2022-11-19T06:09:15.660Z,954.82
2022-11-19T06:09:46.771Z,954.82
2022-11-19T06:10:17.675Z,955.03
2022-11-19T06:10:48.735Z,955.03
2022-11-19T06:11:20.649Z,955.03
2022-11-19T06:11:50.776Z,955.03
2022-11-19T06:12:21.669Z,955.03
2022-11-19T06:12:52.648Z,955.03
2022-11-19T06:13:23.691Z,955.03
2022-11-19T06:13:54.721Z,955.03
2022-11-19T06:14:25.719Z,955.23
2022-11-19T06:14:59.813Z,955.23
2022-11-19T06:15:40.913Z,955.23
2022-11-19T06:15:58.718Z,955.23
2022-11-19T06:16:31.791Z,955.33
2022-11-19T06:17:01.946Z,955.33
2022-11-19T06:17:31.743Z,955.33
2022-11-19T06:18:02.828Z,955.13
2022-11-19T06:18:33.650Z,955.13
2022-11-19T06:19:04.778Z,954.93
2022-11-19T06:19:35.678Z,954.93
2022-11-19T06:20:06.705Z,955.03
2022-11-19T06:20:37.646Z,955.03
2022-11-19T06:21:12.166Z,955.23
2022-11-19T06:21:40.658Z,955.23
2022-11-19T06:22:10.668Z,955.13
2022-11-19T06:22:41.709Z,955.13
2022-11-19T06:23:12.679Z,955.13
2022-11-19T06:23:43.649Z,955.13
2022-11-19T06:24:14.779Z,955.13
2022-11-19T06:24:45.689Z,955.13
2022-11-19T06:25:16.797Z,955.03
2022-11-19T06:25:47.713Z,955.03
2022-11-19T06:26:18.678Z,955.43
2022-11-19T06:26:50.702Z,955.43